Time;durP1;ratioP1;P1;durP2;ratioP2;P2;SDS_P1;SDS_P2;PMS_P1;PMS_P2;Temp;Humidity;BMP_temperature;BMP_pressure;BME280_temperature;BME280_humidity;BME280_pressure;Samples;Min_cycle;Max_cycle;Signal;HPM_P1;HPM_P2
2023/12/25 00:03:33;;;;;;;2.15;0.50;;;;;;;14.95;92.66;99738.84;8284282;28;20302;-56
2023/12/25 00:07:33;;;;;;;0.80;0.17;;;;;;;14.93;92.58;99741.78;8298182;28;20127;-55
2023/12/25 00:11:33;;;;;;;0.63;0.30;;;;;;;14.96;92.36;99745.97;8313390;28;20267;-55
2023/12/25 00:15:34;;;;;;;1.38;0.30;;;;;;;14.93;92.83;99747.22;8284745;28;20564;-55
2023/12/25 00:19:34;;;;;;;2.58;0.30;;;;;;;14.87;93.54;99736.22;8282978;28;20045;-56
2023/12/25 00:23:35;;;;;;;0.50;0.30;;;;;;;14.85;93.47;99736.41;8292347;28;20037;-55
2023/12/25 00:27:35;;;;;;;1.23;0.30;;;;;;;14.87;93.29;99736.22;8293426;28;20125;-56
2023/12/25 00:31:36;;;;;;;1.08;0.28;;;;;;;14.85;93.65;99739.13;8284987;28;20356;-56
2023/12/25 00:35:37;;;;;;;0.20;0.20;;;;;;;14.83;93.50;99735.78;8285592;28;20065;-56
2023/12/25 00:39:38;;;;;;;1.15;0.40;;;;;;;14.82;93.57;99728.63;8320030;28;20613;-56
2023/12/25 00:43:39;;;;;;;0.20;0.17;;;;;;;14.90;92.93;99744.88;8287858;28;20227;-56
2023/12/25 00:47:40;;;;;;;0.50;0.30;;;;;;;14.86;93.38;99740.84;8291229;28;20320;-56
2023/12/25 00:51:40;;;;;;;1.02;0.40;;;;;;;14.86;93.43;99743.56;8290248;28;20065;-56
2023/12/25 00:55:40;;;;;;;0.22;0.10;;;;;;;14.80;93.42;99736.13;8317721;28;20063;-55
2023/12/25 00:59:41;;;;;;;1.38;0.30;;;;;;;14.87;92.99;99745.25;8290261;28;20049;-56
2023/12/25 01:03:41;;;;;;;0.10;0.10;;;;;;;14.88;93.20;99744.19;8288897;28;20477;-55
2023/12/25 01:07:42;;;;;;;0.65;0.30;;;;;;;14.86;93.56;99737.25;8289823;28;20734;-54
2023/12/25 01:11:42;;;;;;;0.35;0.25;;;;;;;14.88;92.91;99743.38;8288850;28;20054;-56
2023/12/25 01:15:43;;;;;;;0.40;0.10;;;;;;;14.87;93.22;99730.78;8299482;28;20405;-56
2023/12/25 01:19:43;;;;;;;0.93;0.20;;;;;;;14.87;93.19;99730.78;8288918;28;20430;-56
2023/12/25 01:23:44;;;;;;;1.45;0.20;;;;;;;14.82;93.65;99725.88;8298563;28;20045;-56
2023/12/25 01:27:44;;;;;;;0.30;0.10;;;;;;;14.83;93.25;99729.47;8290104;28;20249;-56
2023/12/25 01:31:45;;;;;;;0.88;0.10;;;;;;;14.84;93.28;99715.69;8289788;28;20256;-54
2023/12/25 01:35:45;;;;;;;0.32;0.20;;;;;;;14.96;92.24;99703.28;8282954;28;20288;-56
2023/12/25 01:39:46;;;;;;;4.03;0.28;;;;;;;14.98;92.11;99739.31;8284281;28;20274;-54
2023/12/25 01:43:46;;;;;;;0.77;0.20;;;;;;;14.96;92.52;99740.53;8285850;28;20321;-56
2023/12/25 01:47:48;;;;;;;1.10;0.10;;;;;;;14.97;92.45;99755.81;8295053;28;20040;-56
2023/12/25 01:51:50;;;;;;;1.00;0.10;;;;;;;14.99;92.00;99768.25;8318690;28;20041;-54
2023/12/25 01:55:52;;;;;;;1.98;0.20;;;;;;;14.99;92.18;99751.91;8341305;28;20073;-56
2023/12/25 01:59:53;;;;;;;0.50;0.17;;;;;;;14.98;92.84;99782.03;8343758;28;20034;-55
2023/12/25 02:03:53;;;;;;;0.90;0.20;;;;;;;14.96;93.11;99763.16;8344795;28;20033;-54
2023/12/25 02:07:54;;;;;;;0.30;0.20;;;;;;;14.86;94.23;99781.66;8337078;28;20042;-54
2023/12/25 02:11:55;;;;;;;0.55;0.10;;;;;;;14.75;96.40;99792.97;8338481;28;20045;-55
2023/12/25 02:15:55;;;;;;;0.25;0.13;;;;;;;14.69;98.31;99777.41;8342930;28;20045;-55
2023/12/25 02:19:58;;;;;;;0.50;0.20;;;;;;;14.62;98.39;99776.44;8342472;28;20033;-55
2023/12/25 02:24:04;;;;;;;0.95;0.10;;;;;;;14.68;98.52;99785.75;8340557;28;20159;-54
2023/12/25 02:28:05;;;;;;;0.95;0.20;;;;;;;14.62;98.27;99771.00;8341316;28;20052;-54
2023/12/25 02:32:05;;;;;;;1.58;0.30;;;;;;;14.69;97.69;99793.72;8340378;28;20061;-54
2023/12/25 02:36:06;;;;;;;0.75;0.20;;;;;;;14.73;96.90;99795.03;8340928;28;20045;-54
2023/12/25 02:40:07;;;;;;;0.47;0.20;;;;;;;14.80;95.85;99798.72;8340780;28;20112;-54
2023/12/25 02:44:07;;;;;;;0.43;0.10;;;;;;;14.79;96.11;99791.56;8347625;28;20451;-54
2023/12/25 02:48:08;;;;;;;0.30;0.20;;;;;;;14.83;95.39;99792.91;8341778;28;20044;-55
2023/12/25 02:52:08;;;;;;;0.55;0.28;;;;;;;14.86;95.37;99789.81;8315430;28;20175;-56
2023/12/25 02:56:09;;;;;;;0.10;0.10;;;;;;;14.89;95.51;99780.44;8294069;28;20037;-55
2023/12/25 03:00:11;;;;;;;4.22;0.35;;;;;;;14.82;95.61;99787.66;8285817;28;20523;-58
2023/12/25 03:04:11;;;;;;;0.10;0.10;;;;;;;14.76;96.40;99774.78;8285205;28;20269;-57
2023/12/25 03:08:12;;;;;;;1.08;0.22;;;;;;;14.76;95.94;99778.34;8285478;28;20597;-57
2023/12/25 03:12:12;;;;;;;0.52;0.20;;;;;;;14.82;95.83;99766.72;8278976;28;20043;-55
2023/12/25 03:16:13;;;;;;;0.20;0.20;;;;;;;14.80;96.02;99778.81;8282124;28;20475;-57
2023/12/25 03:20:13;;;;;;;0.30;0.10;;;;;;;14.77;96.17;99769.16;8285146;28;20147;-54
2023/12/25 03:24:14;;;;;;;0.50;0.38;;;;;;;14.82;96.46;99783.03;8328181;28;20048;-57
2023/12/25 03:28:14;;;;;;;0.45;0.28;;;;;;;14.77;96.88;99788.22;8337240;28;20523;-56
2023/12/25 03:32:16;;;;;;;1.38;0.30;;;;;;;14.78;96.99;99786.31;8340741;28;20029;-56
2023/12/25 03:36:16;;;;;;;1.10;0.30;;;;;;;14.89;96.51;99783.16;8339360;28;20033;-56
2023/12/25 03:40:17;;;;;;;2.50;0.30;;;;;;;14.88;96.35;99790.47;8338922;28;20538;-57
2023/12/25 03:44:17;;;;;;;1.98;0.30;;;;;;;14.87;96.90;99782.47;8338787;28;20517;-57
2023/12/25 03:48:18;;;;;;;1.05;0.30;;;;;;;15.01;95.28;99776.22;8340773;28;20131;-55
2023/12/25 03:52:18;;;;;;;1.23;0.30;;;;;;;15.09;94.29;99785.13;8340329;28;20069;-56
2023/12/25 03:56:22;;;;;;;2.15;0.20;;;;;;;15.19;93.07;99790.31;8340149;28;20032;-56
2023/12/25 04:00:22;;;;;;;1.80;0.30;;;;;;;15.25;92.09;99795.00;8338412;28;20038;-56
2023/12/25 04:04:23;;;;;;;1.35;0.22;;;;;;;15.30;91.21;99812.47;8341345;28;20076;-56
2023/12/25 04:08:23;;;;;;;0.70;0.20;;;;;;;15.28;91.54;99790.00;8340609;28;20091;-56
2023/12/25 04:12:24;;;;;;;0.30;0.10;;;;;;;15.30;91.16;99793.41;8341792;28;20476;-57
2023/12/25 04:16:26;;;;;;;0.63;0.20;;;;;;;15.26;91.25;99793.97;8345874;28;20388;-57
2023/12/25 04:20:26;;;;;;;1.65;0.20;;;;;;;15.23;91.06;99784.31;8346257;28;20045;-56
2023/12/25 04:24:27;;;;;;;0.38;0.20;;;;;;;15.20;91.03;99795.56;8345428;28;20052;-57
2023/12/25 04:28:29;;;;;;;2.35;0.20;;;;;;;15.26;90.90;99805.72;8296740;28;20061;-56
2023/12/25 04:32:30;;;;;;;0.50;0.13;;;;;;;15.31;90.32;99805.16;8291275;28;20397;-56
2023/12/25 04:36:30;;;;;;;0.28;0.20;;;;;;;15.29;90.69;99799.88;8285768;28;20064;-56
2023/12/25 04:40:31;;;;;;;2.38;0.20;;;;;;;15.19;91.81;99809.38;8288131;28;20033;-57
2023/12/25 04:44:31;;;;;;;0.32;0.10;;;;;;;15.20;91.62;99798.28;8288448;28;20048;-57
2023/12/25 04:48:32;;;;;;;0.57;0.10;;;;;;;15.06;93.78;99801.84;8289965;28;20044;-56
2023/12/25 04:52:33;;;;;;;0.10;0.10;;;;;;;14.88;95.81;99804.06;8291294;28;20396;-57
2023/12/25 04:56:33;;;;;;;0.47;0.10;;;;;;;14.76;96.87;99810.16;8344253;28;20094;-56
2023/12/25 05:00:34;;;;;;;0.63;0.20;;;;;;;14.67;98.25;99806.66;8343741;28;20033;-56
2023/12/25 05:04:36;;;;;;;1.67;0.25;;;;;;;14.60;99.20;99810.28;8345930;28;20507;-56
2023/12/25 05:08:38;;;;;;;1.77;0.20;;;;;;;14.53;100.00;99812.91;8341943;28;20034;-56
2023/12/25 05:12:38;;;;;;;0.90;0.10;;;;;;;14.51;100.00;99804.09;8351267;28;20125;-56
2023/12/25 05:16:40;;;;;;;0.40;0.10;;;;;;;14.46;100.00;99792.94;8345165;28;20057;-56
2023/12/25 05:20:40;;;;;;;2.25;0.10;;;;;;;14.45;100.00;99799.38;8345498;28;20068;-56
2023/12/25 05:24:41;;;;;;;0.40;0.35;;;;;;;14.43;100.00;99787.84;8345243;28;20049;-56
2023/12/25 05:28:41;;;;;;;0.30;0.10;;;;;;;14.44;100.00;99784.09;8343189;28;20041;-56
2023/12/25 05:32:41;;;;;;;0.10;0.10;;;;;;;14.44;100.00;99789.53;8346391;28;20137;-56
2023/12/25 05:36:42;;;;;;;0.40;0.20;;;;;;;14.45;100.00;99793.94;8340895;28;20045;-56
2023/12/25 05:40:42;;;;;;;0.50;0.20;;;;;;;14.45;100.00;99791.22;8344582;28;20049;-55
2023/12/25 05:44:43;;;;;;;0.10;0.10;;;;;;;14.44;100.00;99789.53;8343426;28;20053;-55
2023/12/25 05:48:47;;;;;;;0.22;0.08;;;;;;;14.41;100.00;99795.34;8342446;28;20040;-55
2023/12/25 05:52:47;;;;;;;0.25;0.10;;;;;;;14.43;100.00;99798.72;8341734;28;20131;-56
2023/12/25 05:56:48;;;;;;;0.25;0.10;;;;;;;14.46;100.00;99801.09;8343823;28;20083;-56
2023/12/25 06:00:49;;;;;;;1.38;0.10;;;;;;;14.40;100.00;99793.66;8328906;28;20061;-54
2023/12/25 06:04:50;;;;;;;1.67;0.10;;;;;;;14.43;100.00;99787.84;8287123;28;20480;-55
2023/12/25 06:08:50;;;;;;;0.20;0.10;;;;;;;14.40;100.00;99787.34;8285115;28;20096;-57
2023/12/25 06:12:51;;;;;;;0.15;0.10;;;;;;;14.38;100.00;99779.38;8282150;28;20065;-56
2023/12/25 06:16:51;;;;;;;0.32;0.32;;;;;;;14.39;100.00;99780.25;8286087;28;20033;-55
2023/12/25 06:20:52;;;;;;;1.77;0.13;;;;;;;14.37;100.00;99783.13;8287347;28;20037;-56
2023/12/25 06:24:54;;;;;;;1.65;0.10;;;;;;;14.36;100.00;99781.44;8284494;28;20558;-56
2023/12/25 06:28:55;;;;;;;0.75;0.10;;;;;;;14.44;100.00;99788.69;8298115;28;20033;-55
2023/12/25 06:32:55;;;;;;;0.63;0.50;;;;;;;14.45;100.00;99779.50;8341718;28;20131;-54
2023/12/25 06:36:56;;;;;;;0.40;0.10;;;;;;;14.44;100.00;99781.38;8339932;28;20086;-55
2023/12/25 06:40:56;;;;;;;0.20;0.10;;;;;;;14.49;100.00;99797.97;8340300;28;20034;-54
2023/12/25 06:44:56;;;;;;;0.28;0.10;;;;;;;14.46;100.00;99786.63;8341208;28;20045;-54
2023/12/25 06:48:57;;;;;;;0.10;0.10;;;;;;;14.45;100.00;99796.66;8341889;28;20045;-54
2023/12/25 06:52:57;;;;;;;0.13;0.10;;;;;;;14.45;100.00;99796.66;8342270;28;20068;-55
2023/12/25 06:56:58;;;;;;;0.32;0.10;;;;;;;14.48;100.00;99792.72;8339066;28;20029;-55
2023/12/25 07:01:00;;;;;;;0.38;0.10;;;;;;;14.48;100.00;99788.13;8341167;28;20033;-55
2023/12/25 07:05:00;;;;;;;0.40;0.17;;;;;;;14.48;100.00;99776.41;8340901;28;20547;-55
2023/12/25 07:09:01;;;;;;;0.22;0.10;;;;;;;14.47;100.00;99789.16;8335064;28;20402;-56
2023/12/25 07:13:01;;;;;;;0.47;0.10;;;;;;;14.51;100.00;99784.19;8336080;28;20037;-55
2023/12/25 07:17:02;;;;;;;0.35;0.10;;;;;;;14.46;100.00;99792.94;8339070;28;20470;-56
2023/12/25 07:21:03;;;;;;;0.30;0.10;;;;;;;14.48;100.00;99790.84;8340969;28;20032;-57
2023/12/25 07:25:06;;;;;;;0.28;0.10;;;;;;;14.52;100.00;99797.59;8338838;28;20072;-56
2023/12/25 07:29:06;;;;;;;0.20;0.10;;;;;;;14.54;100.00;99795.56;8323786;28;20037;-57
2023/12/25 07:33:06;;;;;;;0.20;0.10;;;;;;;14.50;100.00;99791.53;8284230;28;20163;-57
2023/12/25 07:37:07;;;;;;;0.50;0.30;;;;;;;14.48;100.00;99793.56;8283045;28;20128;-57
2023/12/25 07:41:09;;;;;;;0.82;0.30;;;;;;;14.45;100.00;99802.09;8284753;28;20112;-56
2023/12/25 07:45:12;;;;;;;0.28;0.20;;;;;;;14.48;100.00;99804.44;8292229;28;20324;-58
2023/12/25 07:49:12;;;;;;;0.55;0.20;;;;;;;14.43;100.00;99812.31;8279788;28;20111;-58
2023/12/25 07:53:13;;;;;;;0.20;0.10;;;;;;;14.45;100.00;99823.84;8288313;28;20102;-57
2023/12/25 07:57:16;;;;;;;0.30;0.20;;;;;;;14.52;100.00;99830.25;8304532;28;20471;-56
2023/12/25 08:01:18;;;;;;;0.35;0.20;;;;;;;14.51;100.00;99828.56;8349712;28;20052;-55
2023/12/25 08:05:19;;;;;;;0.52;0.32;;;;;;;14.51;100.00;99823.13;8343779;28;20763;-56
2023/12/25 08:09:19;;;;;;;1.00;0.40;;;;;;;14.56;100.00;99831.59;8350818;28;20049;-55
2023/12/25 08:13:20;;;;;;;0.35;0.30;;;;;;;14.62;99.56;99836.31;8349199;28;20110;-56
2023/12/25 08:17:20;;;;;;;0.43;0.30;;;;;;;14.66;99.14;99837.63;8342411;28;20527;-56
2023/12/25 08:21:22;;;;;;;0.47;0.40;;;;;;;14.66;99.73;99832.19;8346661;28;20032;-57
2023/12/25 08:25:25;;;;;;;0.63;0.40;;;;;;;14.65;99.99;99833.22;8347986;28;20041;-56
2023/12/25 08:29:26;;;;;;;0.13;0.13;;;;;;;14.70;99.67;99833.50;8347555;28;20041;-57
2023/12/25 08:33:26;;;;;;;0.30;0.30;;;;;;;14.71;99.91;99834.34;8341068;28;20037;-57
2023/12/25 08:37:26;;;;;;;0.10;0.10;;;;;;;14.74;99.59;99834.84;8343281;28;20041;-57
2023/12/25 08:41:27;;;;;;;0.20;0.20;;;;;;;14.83;98.97;99824.72;8342271;28;20451;-58
2023/12/25 08:45:27;;;;;;;0.10;0.10;;;;;;;14.89;97.99;99843.03;8343532;28;20087;-57
2023/12/25 08:49:28;;;;;;;0.10;0.00;;;;;;;14.99;97.30;99846.31;8348756;28;20111;-57
2023/12/25 08:53:28;;;;;;;0.10;0.10;;;;;;;14.99;97.30;99854.50;8343222;28;20218;-56
2023/12/25 08:57:34;;;;;;;0.20;0.20;;;;;;;14.94;97.95;99860.50;8344753;28;20116;-57
2023/12/25 09:01:35;;;;;;;0.55;0.10;;;;;;;14.94;97.85;99874.09;8343373;28;20045;-55
2023/12/25 09:05:35;;;;;;;0.63;0.10;;;;;;;14.92;98.52;99876.19;8346437;28;20047;-57
2023/12/25 09:09:36;;;;;;;0.00;0.00;;;;;;;14.98;98.06;99889.03;8344572;28;20137;-57
2023/12/25 09:13:36;;;;;;;0.17;0.10;;;;;;;14.94;98.43;99895.88;8339290;28;20037;-57
2023/12/25 09:17:37;;;;;;;0.40;0.10;;;;;;;14.98;98.26;99891.75;8339282;28;20516;-56
2023/12/25 09:21:39;;;;;;;1.65;0.20;;;;;;;15.02;97.62;99887.66;8337455;28;20041;-58
2023/12/25 09:25:39;;;;;;;0.20;0.10;;;;;;;14.99;97.72;99890.75;8346021;28;20456;-56
2023/12/25 09:29:40;;;;;;;0.00;0.00;;;;;;;15.10;96.86;99893.00;8342552;28;20410;-56
2023/12/25 09:33:41;;;;;;;0.38;0.10;;;;;;;15.25;95.51;99902.03;8334465;28;20045;-56
2023/12/25 09:37:42;;;;;;;0.13;0.13;;;;;;;15.18;95.94;99892.94;8341793;28;20390;-55
2023/12/25 09:41:43;;;;;;;0.60;0.10;;;;;;;15.15;95.35;99893.31;8338733;28;20362;-54
2023/12/25 09:45:44;;;;;;;0.15;0.10;;;;;;;15.23;95.16;99903.28;8338993;28;20038;-56
2023/12/25 09:49:45;;;;;;;0.20;0.10;;;;;;;15.18;95.55;99895.66;8339883;28;20041;-58
2023/12/25 09:53:45;;;;;;;0.10;0.10;;;;;;;15.25;94.70;99914.84;8337552;28;20037;-57
2023/12/25 09:57:47;;;;;;;0.40;0.20;;;;;;;15.25;94.79;99929.28;8340845;28;20033;-57
2023/12/25 10:01:50;;;;;;;0.05;0.05;;;;;;;15.23;94.73;99928.63;8340936;28;20131;-57
2023/12/25 10:05:50;;;;;;;0.08;0.05;;;;;;;15.29;94.97;99927.03;8336236;28;20038;-57
2023/12/25 10:09:55;;;;;;;0.10;0.10;;;;;;;15.31;94.64;99912.19;8343265;28;20069;-55
2023/12/25 10:13:55;;;;;;;;;;;;;;;15.31;94.49;99928.53;8334605;28;20037;-55
2023/12/25 10:18:04;;;;;;;0.17;0.10;;;;;;;15.33;94.77;99929.22;8328654;28;19916;-55
2023/12/25 10:22:05;;;;;;;0.38;0.20;;;;;;;15.40;94.25;99927.47;8342781;28;20049;-55
2023/12/25 10:26:05;;;;;;;0.30;0.20;;;;;;;15.38;94.52;99932.28;8334790;28;20056;-55
2023/12/25 10:30:22;;;;;;;0.82;0.20;;;;;;;15.40;94.44;99930.19;8335232;28;20040;-56
2023/12/25 10:34:23;;;;;;;0.30;0.20;;;;;;;15.41;94.46;99920.97;8340396;28;20503;-55
2023/12/25 10:38:25;;;;;;;0.43;0.10;;;;;;;15.43;94.37;99905.28;8336251;28;20131;-55
2023/12/25 10:42:25;;;;;;;0.10;0.10;;;;;;;15.45;94.46;99908.69;8334692;28;20053;-55
2023/12/25 10:46:35;;;;;;;0.30;0.20;;;;;;;15.50;94.17;99908.13;8334057;28;20083;-55
2023/12/25 10:50:38;;;;;;;0.28;0.10;;;;;;;15.50;94.71;99908.97;8334540;28;20045;-55
2023/12/25 10:54:42;;;;;;;0.10;0.10;;;;;;;15.51;94.03;99916.13;8335530;28;20585;-56
2023/12/25 10:58:44;;;;;;;0.77;0.10;;;;;;;15.53;94.06;99919.47;8335046;28;20424;-55
2023/12/25 11:02:45;;;;;;;0.43;0.10;;;;;;;15.56;94.21;99913.66;8332192;28;20616;-55
2023/12/25 11:06:47;;;;;;;0.20;0.10;;;;;;;15.63;93.27;99913.78;8321846;28;20041;-56
2023/12/25 11:10:47;;;;;;;0.60;0.30;;;;;;;15.69;92.88;99913.88;8360743;28;20414;-55
2023/12/25 11:14:49;;;;;;;0.90;0.20;;;;;;;15.67;92.23;99918.66;8363799;28;20196;-54
2023/12/25 11:18:50;;;;;;;0.20;0.20;;;;;;;15.69;92.67;99916.59;8348048;28;20048;-57
2023/12/25 11:22:57;;;;;;;0.25;0.25;;;;;;;15.73;92.73;99926.09;8342970;28;20041;-55
2023/12/25 11:27:02;;;;;;;0.20;0.10;;;;;;;15.73;92.41;99920.63;8361869;28;20102;-55
2023/12/25 11:31:04;;;;;;;2.90;0.28;;;;;;;15.71;92.95;99927.31;8354550;28;20138;-54
2023/12/25 11:35:07;;;;;;;0.25;0.20;;;;;;;15.76;92.76;99924.03;8344586;28;20469;-56
2023/12/25 11:39:09;;;;;;;0.30;0.30;;;;;;;15.73;92.68;99898.81;8335169;28;20496;-55
2023/12/25 11:43:10;;;;;;;0.20;0.10;;;;;;;15.76;92.29;99902.22;8359173;28;20056;-56
2023/12/25 11:47:10;;;;;;;0.10;0.10;;;;;;;15.79;92.32;99899.94;8351179;28;20033;-56
2023/12/25 11:51:22;;;;;;;0.30;0.13;;;;;;;15.77;92.61;99893.00;8363537;28;20360;-55
2023/12/25 11:55:25;;;;;;;3.13;0.20;;;;;;;15.77;92.17;99895.72;8346607;28;20049;-55
2023/12/25 11:59:25;;;;;;;4.72;2.47;;;;;;;15.80;92.52;99898.06;8351759;28;20037;-56
2023/12/25 12:03:27;;;;;;;0.28;0.20;;;;;;;15.80;92.32;99898.94;8345303;28;20037;-56
2023/12/25 12:07:27;;;;;;;1.05;0.50;;;;;;;15.81;92.31;99888.84;8348301;28;20128;-56
2023/12/25 12:11:27;;;;;;;2.45;0.40;;;;;;;15.81;92.12;99888.84;8368182;28;20613;-56
2023/12/25 12:15:28;;;;;;;0.30;0.30;;;;;;;15.84;92.39;99899.38;8338121;28;20522;-55
2023/12/25 12:19:29;;;;;;;0.57;0.28;;;;;;;15.88;92.03;99898.81;8340344;28;20029;-57
2023/12/25 12:23:31;;;;;;;0.30;0.30;;;;;;;15.82;92.53;99909.66;8345335;28;20037;-56
2023/12/25 12:27:32;;;;;;;0.55;0.20;;;;;;;15.80;92.33;99906.25;8338996;28;20407;-55
2023/12/25 12:31:33;;;;;;;1.38;0.35;;;;;;;15.77;92.90;99908.31;8343558;28;20124;-55
2023/12/25 12:35:33;;;;;;;1.52;0.50;;;;;;;15.74;92.85;99905.97;8346913;28;20044;-56
2023/12/25 12:39:35;;;;;;;1.45;0.30;;;;;;;15.73;93.16;99902.59;8345597;28;20040;-57
2023/12/25 12:43:36;;;;;;;1.05;0.70;;;;;;;15.70;93.49;99915.56;8341507;28;20051;-57
2023/12/25 12:47:37;;;;;;;0.57;0.57;;;;;;;15.61;95.03;99913.94;8348715;28;20044;-56
2023/12/25 12:51:38;;;;;;;0.38;0.30;;;;;;;15.53;95.63;99900.41;8343653;28;20041;-56
2023/12/25 12:55:39;;;;;;;0.20;0.20;;;;;;;15.49;96.67;99904.56;8342156;28;20058;-57
2023/12/25 12:59:40;;;;;;;1.50;0.30;;;;;;;15.45;97.67;99888.75;8349051;28;20560;-57
2023/12/25 13:03:41;;;;;;;0.65;0.20;;;;;;;15.38;98.04;99894.13;8369481;28;20036;-56
2023/12/25 13:07:42;;;;;;;1.25;0.20;;;;;;;15.32;97.68;99894.84;8374098;28;20354;-56
2023/12/25 13:11:43;;;;;;;0.60;0.25;;;;;;;15.34;97.30;99909.09;8340791;28;20048;-55
2023/12/25 13:15:44;;;;;;;0.32;0.20;;;;;;;15.36;97.46;99912.50;8369388;28;20037;-56
2023/12/25 13:19:44;;;;;;;0.22;0.10;;;;;;;15.37;97.08;99914.22;8356410;28;20041;-57
2023/12/25 13:23:45;;;;;;;0.40;0.30;;;;;;;15.36;97.14;99917.94;8354344;28;20398;-57
2023/12/25 13:27:45;;;;;;;0.43;0.30;;;;;;;15.38;97.02;99924.09;8345879;28;20044;-58
2023/12/25 13:31:46;;;;;;;0.30;0.25;;;;;;;15.37;96.63;99916.94;8340495;28;20029;-56
2023/12/25 13:35:47;;;;;;;0.85;0.30;;;;;;;15.41;97.08;99909.25;8344746;28;20121;-57
2023/12/25 13:39:47;;;;;;;0.55;0.30;;;;;;;15.34;98.31;99914.56;8346294;28;20518;-55
2023/12/25 13:43:48;;;;;;;0.52;0.30;;;;;;;15.25;99.52;99921.09;8342539;28;20436;-57
2023/12/25 13:47:49;;;;;;;0.25;0.22;;;;;;;15.20;100.00;99920.84;8333761;28;20041;-56
2023/12/25 13:51:49;;;;;;;1.00;0.40;;;;;;;15.11;100.00;99919.22;8336941;28;20095;-59
2023/12/25 13:55:50;;;;;;;0.30;0.30;;;;;;;15.07;100.00;99900.72;8337488;28;20041;-59
2023/12/25 13:59:50;;;;;;;0.40;0.40;;;;;;;15.11;100.00;99902.03;8341948;28;20033;-58
2023/12/25 14:03:51;;;;;;;0.70;0.40;;;;;;;15.24;100.00;99913.97;8327247;28;20176;-56
2023/12/25 14:07:52;;;;;;;0.20;0.20;;;;;;;15.34;98.78;99914.56;8340363;28;20210;-56
2023/12/25 14:11:54;;;;;;;0.30;0.30;;;;;;;15.38;98.02;99905.03;8344394;28;20476;-55
2023/12/25 14:15:55;;;;;;;0.55;0.20;;;;;;;15.44;96.77;99919.78;8335882;28;20116;-57
2023/12/25 14:19:55;;;;;;;0.30;0.30;;;;;;;15.58;95.55;99919.78;8334574;28;20390;-58
2023/12/25 14:23:56;;;;;;;0.52;0.40;;;;;;;15.67;94.61;99915.94;8343579;28;20037;-58
2023/12/25 14:27:56;;;;;;;1.15;0.60;;;;;;;15.65;94.23;99926.16;8332449;28;20660;-57
2023/12/25 14:31:57;;;;;;;0.55;0.40;;;;;;;15.66;94.07;99924.28;8332488;28;20041;-57
2023/12/25 14:35:57;;;;;;;0.47;0.30;;;;;;;15.69;93.85;99938.41;8339426;28;20041;-58
2023/12/25 14:39:58;;;;;;;0.47;0.45;;;;;;;15.69;94.16;99935.69;8339401;28;20033;-56
2023/12/25 14:43:58;;;;;;;1.40;0.60;;;;;;;15.73;93.56;99936.13;8334528;28;20542;-57
2023/12/25 14:47:59;;;;;;;0.85;0.60;;;;;;;15.69;92.98;99924.78;8334857;28;20132;-59
2023/12/25 14:52:00;;;;;;;0.50;0.40;;;;;;;15.73;93.35;99926.09;8330311;28;20033;-55
2023/12/25 14:56:03;;;;;;;1.00;0.52;;;;;;;15.68;93.94;99923.06;8333748;28;20038;-57
2023/12/25 15:00:04;;;;;;;1.48;0.40;;;;;;;15.64;94.53;99935.38;8331618;28;20040;-55
2023/12/25 15:04:05;;;;;;;0.50;0.50;;;;;;;15.62;93.97;99934.72;8338966;28;20041;-56
2023/12/25 15:08:05;;;;;;;2.15;1.30;;;;;;;15.62;94.50;99940.16;8330385;28;20060;-54
2023/12/25 15:12:06;;;;;;;1.30;0.70;;;;;;;15.61;94.88;99943.94;8331355;28;20413;-54
2023/12/25 15:16:07;;;;;;;3.28;0.70;;;;;;;15.60;94.86;99947.69;8333900;28;20041;-55
2023/12/25 15:20:07;;;;;;;2.42;0.47;;;;;;;15.53;95.06;99941.28;8332360;28;20077;-54
2023/12/25 15:24:08;;;;;;;2.47;0.30;;;;;;;15.56;95.05;99923.72;8333953;28;20060;-54
2023/12/25 15:28:08;;;;;;;0.38;0.20;;;;;;;15.53;95.43;99924.94;8334123;28;20040;-55
2023/12/25 15:32:11;;;;;;;0.20;0.20;;;;;;;15.48;95.84;99921.09;8331661;28;20041;-55
2023/12/25 15:36:13;;;;;;;0.88;0.30;;;;;;;15.49;95.69;99926.34;8333358;28;20487;-55
2023/12/25 15:40:13;;;;;;;0.30;0.30;;;;;;;15.50;95.40;99924.47;8331891;28;20523;-55
2023/12/25 15:44:14;;;;;;;1.10;0.30;;;;;;;15.50;95.39;99933.47;8329823;28;20034;-56
2023/12/25 15:48:14;;;;;;;0.35;0.28;;;;;;;15.49;95.28;99934.53;8330111;28;20079;-54
2023/12/25 15:52:15;;;;;;;0.52;0.30;;;;;;;15.51;95.31;99937.91;8333429;28;20044;-55
2023/12/25 15:56:16;;;;;;;1.00;0.50;;;;;;;15.48;95.23;99923.81;8330341;28;20045;-56
2023/12/25 16:00:17;;;;;;;0.35;0.20;;;;;;;15.47;95.22;99920.22;8333365;28;20059;-55
2023/12/25 16:04:17;;;;;;;1.45;0.20;;;;;;;15.44;95.58;99931.50;8339647;28;20056;-56
2023/12/25 16:08:17;;;;;;;0.43;0.30;;;;;;;15.46;95.20;99934.88;8333532;28;20047;-55
2023/12/25 16:12:23;;;;;;;0.93;0.30;;;;;;;15.46;95.13;99928.59;8334348;28;20034;-57
2023/12/25 16:16:25;;;;;;;0.80;0.35;;;;;;;15.46;94.85;99934.88;8337141;28;20407;-58
2023/12/25 16:20:26;;;;;;;0.52;0.30;;;;;;;15.51;94.35;99927.00;8354433;28;20109;-57
2023/12/25 16:24:26;;;;;;;0.57;0.20;;;;;;;15.52;93.85;99928.69;8364663;28;20040;-58
2023/12/25 16:28:27;;;;;;;0.20;0.20;;;;;;;15.53;93.70;99927.66;8343984;28;20033;-57
2023/12/25 16:32:27;;;;;;;0.32;0.20;;;;;;;15.50;93.99;99929.94;8340727;28;20177;-58
2023/12/25 16:36:29;;;;;;;0.30;0.30;;;;;;;15.49;94.03;99929.06;8333901;28;20532;-58
2023/12/25 16:40:31;;;;;;;0.73;0.30;;;;;;;15.55;93.73;99931.06;8340518;28;20036;-57
2023/12/25 16:44:31;;;;;;;0.28;0.20;;;;;;;15.49;93.29;99936.38;8338550;28;20120;-58
2023/12/25 16:48:31;;;;;;;3.95;0.95;;;;;;;15.55;93.46;99939.22;8340156;28;20392;-56
2023/12/25 16:52:33;;;;;;;0.40;0.20;;;;;;;15.45;94.00;99938.66;8334650;28;20064;-57
2023/12/25 16:56:33;;;;;;;1.20;0.30;;;;;;;15.47;93.73;99942.03;8339421;28;20487;-57
2023/12/25 17:00:35;;;;;;;0.22;0.20;;;;;;;15.49;93.87;99937.25;8335611;28;20411;-57
2023/12/25 17:04:35;;;;;;;0.25;0.20;;;;;;;15.45;94.31;99932.34;8339592;28;20045;-57
2023/12/25 17:08:36;;;;;;;0.65;0.38;;;;;;;15.50;93.93;99929.94;8339202;28;20036;-56
2023/12/25 17:12:37;;;;;;;0.65;0.20;;;;;;;15.43;94.67;99935.25;8335236;28;20544;-58
2023/12/25 17:16:39;;;;;;;1.15;0.28;;;;;;;15.36;95.87;99934.28;8338092;28;20041;-58
2023/12/25 17:20:41;;;;;;;0.38;0.15;;;;;;;15.24;97.68;99935.75;8332263;28;20075;-55
2023/12/25 17:24:42;;;;;;;0.38;0.20;;;;;;;15.21;98.10;99936.13;8338715;28;20119;-56
2023/12/25 17:28:45;;;;;;;0.10;0.10;;;;;;;15.20;98.18;99934.44;8344549;28;20593;-58
2023/12/25 17:32:46;;;;;;;0.32;0.20;;;;;;;15.24;98.03;99940.34;8347634;28;20098;-56
2023/12/25 17:36:52;;;;;;;0.55;0.22;;;;;;;15.20;98.15;99948.06;8343277;28;20057;-56
2023/12/25 17:40:52;;;;;;;0.40;0.20;;;;;;;15.18;98.33;99939.22;8347991;28;20040;-55
2023/12/25 17:44:54;;;;;;;0.38;0.30;;;;;;;15.16;98.50;99935.00;8343726;28;20090;-56
2023/12/25 17:48:54;;;;;;;1.92;0.35;;;;;;;15.14;98.06;99937.91;8337122;28;20167;-57
2023/12/25 17:52:55;;;;;;;0.85;0.40;;;;;;;15.16;98.47;99935.00;8355431;28;20038;-57
2023/12/25 17:56:55;;;;;;;1.30;0.63;;;;;;;15.09;99.27;99943.03;8350085;28;20029;-57
2023/12/25 18:00:56;;;;;;;0.65;0.32;;;;;;;15.07;99.42;99936.94;8340283;28;20403;-54
2023/12/25 18:04:56;;;;;;;0.98;0.50;;;;;;;15.05;99.95;99936.28;8341518;28;20041;-56
2023/12/25 18:08:57;;;;;;;0.85;0.30;;;;;;;15.02;99.83;99941.25;8345583;28;20041;-57
2023/12/25 18:12:57;;;;;;;0.65;0.30;;;;;;;14.96;100.00;99940.09;8345451;28;20033;-55
2023/12/25 18:16:58;;;;;;;0.82;0.30;;;;;;;14.91;100.00;99942.50;8337901;28;20033;-55
2023/12/25 18:20:58;;;;;;;2.05;0.38;;;;;;;14.88;100.00;99934.72;8333104;28;20530;-56
2023/12/25 18:24:59;;;;;;;0.88;0.50;;;;;;;14.88;100.00;99940.16;8336352;28;20069;-55
2023/12/25 18:29:00;;;;;;;0.50;0.38;;;;;;;14.93;100.00;99942.34;8334430;28;20391;-56
2023/12/25 18:33:00;;;;;;;1.15;0.40;;;;;;;14.92;99.85;99938.78;8340964;28;20033;-54
2023/12/25 18:37:01;;;;;;;0.82;0.57;;;;;;;14.92;99.27;99937.94;8336986;28;20061;-54
2023/12/25 18:41:01;;;;;;;0.95;0.40;;;;;;;14.99;98.59;99942.47;8340797;28;20653;-54
2023/12/25 18:45:03;;;;;;;0.77;0.40;;;;;;;14.98;98.77;99951.63;8333812;28;20045;-56
2023/12/25 18:49:03;;;;;;;0.93;0.38;;;;;;;15.00;98.24;99938.69;8333359;28;20033;-53
2023/12/25 18:53:05;;;;;;;0.88;0.40;;;;;;;15.02;97.96;99930.34;8342263;28;20043;-54